Weather observations for the past three days for
Baltimore, Inner Harbor
Imperial (Metric)
Date Time (edt) Wind (mph) Vis. (mi.) Weather Sky Cond. Temperature (ºF) Relative Humidity Wind Chill (°F) Heat Index (°F) Pressure Precipitation (in)
Air Dwpt 6 hour altimeter (in) sea level (mb) 1 hr 3 hr 6 hr
Max. Min.
02 17:53 Calm 0.00 NULL NULL 61 26.1 26% 29.88 1011.9
02 16:53 Calm 0.00 NULL NULL 60.1 27 28% 29.88 1011.7
02 15:53 Calm 0.00 NULL NULL 61 26.1 26% 29.88 1011.7
02 14:53 Calm 0.00 NULL NULL 62.1 28 28% 29.91 1012.8
02 13:53 Calm 0.00 NULL NULL 60.1 30.9 60.1 50 33% 29.93 1013.6
02 12:53 Calm 0.00 NULL NULL 57.9 30 35% 29.95 1014.1
02 11:53 Calm 0.00 NULL NULL 57.9 30 35% 29.95 1014.3
02 10:53 Calm 0.00 NULL NULL 55 30.9 40% 29.96 1014.4
02 09:53 Calm 0.00 NULL NULL 53.1 32 45% 29.95 1014.1
02 07:53 Calm 0.00 NULL NULL 50 36 57 50 59% 29.95 1014.3
02 06:53 Calm 0.00 NULL NULL 50 35.1 57% 29.94 1013.9
02 05:53 Calm 0.00 NULL NULL 52 36 55% 29.92 1013.1
02 04:53 Calm 0.00 NULL NULL 54 39 57% 29.92 1013.0
02 03:53 Calm 0.00 NULL NULL 55 42.1 62% 29.9 1012.6
02 02:53 Calm 0.00 NULL NULL 55.9 41 57% 29.89 1012.3
02 01:53 Calm 0.00 NULL NULL 57 42.1 61 57 58% 29.91 1012.8
02 00:53 Calm 0.00 NULL NULL 57 44.1 62% 29.92 1013.0
01 23:53 Calm 0.00 NULL NULL 57.9 45 62% 29.91 1012.7
01 22:53 Calm 0.00 NULL NULL 59 44.1 58% 29.88 1011.9
01 21:53 Calm 0.00 NULL NULL 59 42.1 54% 29.89 1012.1
01 20:53 Calm 0.00 NULL NULL 60.1 37.9 44% 29.87 1011.5
01 19:53 Calm 0.00 NULL NULL 61 37 66.9 61 41% 29.85 1010.9
01 18:53 Calm 0.00 NULL NULL 64 36 35% 29.85 1010.8
01 17:53 Calm 0.00 NULL NULL 66 37 34% 29.85 1010.9
01 16:53 Calm 0.00 NULL NULL 64 37.9 38% 29.86 1010.9
01 15:53 Calm 0.00 NULL NULL 64 37.9 38% 29.88 1011.9
01 14:53 Calm 0.00 NULL NULL 63 36 37% 29.91 1012.7
01 13:53 Calm 0.00 NULL NULL 63 34 64 48 34% 29.94 1013.7
01 12:53 Calm 0.00 NULL NULL 62.1 35.1 37% 29.95 1014.1
01 11:53 Calm 0.00 NULL NULL 60.1 33.1 36% 29.98 1015.1
01 10:53 Calm 0.00 NULL NULL 57.9 34 41% 30 1015.8
01 09:53 Calm 0.00 NULL NULL 55.9 35.1 46% 30.02 1016.6
01 08:53 Calm 0.00 NULL NULL 52 37 57% 30.04 1017.1
01 07:53 Calm 0.00 NULL NULL 48 37 50 45 66% 30.02 1016.4
01 06:53 Calm 0.00 NULL NULL 46 37 71% 29.98 1015.3
01 05:53 Calm 0.00 NULL NULL 46 36 68% 29.97 1014.9
01 04:53 Calm 0.00 NULL NULL 46 36 68% 29.97 1014.8
01 03:53 Calm 0.00 NULL NULL 46.9 36 66% 29.95 1014.3
01 02:53 Calm 0.00 NULL NULL 48 36 63% 29.95 1014.1
01 01:53 Calm 0.00 NULL NULL 50 36 60.1 50 59% 29.95 1014.1
01 00:53 Calm 0.00 NULL NULL 51.1 36 56% 29.94 1013.9
30 23:53 Calm 0.00 NULL NULL 52 36 55% 29.93 1013.5
30 22:53 Calm 0.00 NULL NULL 54 36 51% 29.93 1013.3
30 21:53 Calm 0.00 NULL NULL 55 36 49% 29.92 1013.2
30 20:53 Calm 0.00 NULL NULL 55.9 37 49% 29.88 1011.7
30 19:53 Calm 0.00 NULL NULL 60.1 36 70 60.1 41% 29.82 1009.8
30 18:53 Calm 0.00 NULL NULL 64 37.9 38% 29.77 1008.2
30 17:53 Calm 0.00 NULL NULL 66.9 37.9 35% 29.79 1008.9
30 16:53 Calm 0.00 NULL NULL 68 33.1 27% 29.77 1008.0
30 15:53 Calm 0.00 NULL NULL 66.9 33.1 29% 29.76 1007.6
30 14:53 Calm 0.00 NULL NULL 68 35.1 30% 29.78 1008.5
30 13:53 Calm 0.00 NULL NULL 66.9 37 68 55 33% 29.77 1008.0
30 12:53 Calm 0.00 NULL NULL 66 36 33% 29.78 1008.4
30 11:53 Calm 0.00 NULL NULL 64 39.9 41% 29.79 1008.8
30 10:53 Calm 0.00 NULL NULL 63 43 48% 29.81 1009.3
30 09:53 Calm 0.00 NULL NULL 62.1 46.9 58% 29.82 1009.9
30 08:53 Calm 0.00 NULL NULL 59 48.9 69% 29.8 1009.0
30 07:53 Calm 0.00 NULL NULL 55 51.1 55 51.1 87% 29.79 1008.8
30 06:53 Calm 0.00 NULL NULL 53.1 51.1 93% 29.77 1008.2
30 05:53 Calm 0.00 NULL NULL 52 50 93% 29.76 1007.6
30 04:53 Calm 0.00 NULL NULL 52 50 93% 29.76 1007.6
30 03:53 Calm 0.00 NULL NULL 52 50 93% 29.75 1007.5
30 02:53 Calm 0.00 NULL NULL 53.1 50 89% 29.75 1007.5
30 01:53 Calm 0.00 NULL NULL 52 50 55.9 52 93% 29.76 1007.6 0.15
30 00:53 Calm 0.00 NULL NULL 53.1 51.1 93% 29.79 1008.6
29 23:53 Calm 0.00 NULL NULL 53.1 50 89% 29.78 1008.4 0.03
29 22:53 Calm 0.00 NULL NULL 54 51.1 90% 29.78 1008.2 0.04 0.12
29 21:53 Calm 0.00 NULL NULL 55.9 53.1 90% 29.79 1008.8 0.03
29 20:53 Calm 0.00 NULL NULL 55.9 52 87% 29.78 1008.4 0.05
29 19:53 Calm 0.00 NULL NULL 55.9 53.1 62.1 55.9 90% 29.77 1007.9 0.15 0.31
29 18:53 Calm 0.00 NULL NULL 57 54 90% 29.78 1008.4 0.14
Date Time (edt) Wind (mph) Vis. (mi.) Weather Sky Cond. Air Dwpt Max. Min. Relative Humidity Wind Chill (°F) Heat Index (°F) altimeter (in) sea level (mb) 1 hr 3 hr 6 hr
6 hour
Temperature (ºF) Pressure Precipitation (in)